createdAt,value
2018-06-14T00:01:56.936Z,61.81
2018-06-14T00:04:25.696Z,62.10
2018-06-14T00:06:54.339Z,62.45
2018-06-14T00:09:23.059Z,62.52
2018-06-14T00:11:51.755Z,62.29
2018-06-14T00:14:20.519Z,61.82
2018-06-14T00:16:49.212Z,61.42
2018-06-14T00:19:19.990Z,61.28
2018-06-14T00:21:48.627Z,61.02
2018-06-14T00:24:17.297Z,61.10
2018-06-14T00:26:45.964Z,60.88
2018-06-14T00:29:14.659Z,61.16
2018-06-14T00:31:43.357Z,61.19
2018-06-14T00:34:12.318Z,61.30
2018-06-14T00:36:41.007Z,61.29
2018-06-14T00:39:09.791Z,60.52
2018-06-14T00:41:38.481Z,60.98
2018-06-14T00:44:07.267Z,61.10
2018-06-14T00:46:35.976Z,60.23
2018-06-14T00:49:04.665Z,60.93
2018-06-14T00:51:33.325Z,61.46
2018-06-14T00:54:01.990Z,61.81
2018-06-14T00:56:36.204Z,62.16
2018-06-14T00:59:04.884Z,62.29
2018-06-14T01:01:33.595Z,62.10
2018-06-14T01:04:02.235Z,61.78
2018-06-14T01:06:30.989Z,62.28
2018-06-14T01:08:59.623Z,62.08
2018-06-14T01:11:28.259Z,62.02
2018-06-14T01:13:57.234Z,62.12
2018-06-14T01:16:25.891Z,62.20
2018-06-14T01:18:54.550Z,61.83
2018-06-14T01:21:23.223Z,62.19
2018-06-14T01:23:51.890Z,61.80
2018-06-14T01:26:20.559Z,61.84
2018-06-14T01:28:49.186Z,60.86
2018-06-14T01:31:17.851Z,62.01
2018-06-14T01:33:46.506Z,62.15
2018-06-14T01:36:15.270Z,62.07
2018-06-14T01:38:43.935Z,61.87
2018-06-14T01:41:12.542Z,61.95
2018-06-14T01:43:41.221Z,61.63
2018-06-14T01:46:10.086Z,61.45
2018-06-14T01:48:38.765Z,61.38
2018-06-14T01:51:07.452Z,61.86
2018-06-14T01:53:36.212Z,61.62
2018-06-14T01:56:05.091Z,61.78
2018-06-14T01:58:33.736Z,61.84
2018-06-14T02:01:02.391Z,61.89
2018-06-14T02:03:31.258Z,61.88
2018-06-14T02:05:59.908Z,62.07
2018-06-14T02:08:28.704Z,61.97
2018-06-14T02:10:57.360Z,61.83
2018-06-14T02:13:26.035Z,61.42
2018-06-14T02:15:55.003Z,61.07
2018-06-14T02:18:23.719Z,61.17
2018-06-14T02:20:52.402Z,61.29
2018-06-14T02:23:21.122Z,61.34
2018-06-14T02:25:49.812Z,61.73
2018-06-14T02:28:18.495Z,62.16
2018-06-14T02:30:47.214Z,62.23
2018-06-14T02:33:15.940Z,62.95
2018-06-14T02:35:44.732Z,62.82
2018-06-14T02:38:14.201Z,62.97
2018-06-14T02:40:42.895Z,63.61
2018-06-14T02:43:12.159Z,63.23
2018-06-14T02:45:40.889Z,63.64
2018-06-14T02:48:09.684Z,64.06
2018-06-14T02:50:38.319Z,64.06
2018-06-14T02:53:07.007Z,64.11
2018-06-14T02:55:35.719Z,64.21
2018-06-14T02:58:04.509Z,64.42
2018-06-14T03:00:33.163Z,64.43
2018-06-14T03:03:01.806Z,65.13
2018-06-14T03:05:30.427Z,65.66
2018-06-14T03:07:59.069Z,65.93
2018-06-14T03:10:27.800Z,66.41
2018-06-14T03:12:56.485Z,66.67
2018-06-14T03:15:26.299Z,66.91
2018-06-14T03:17:54.941Z,67.92
2018-06-14T03:20:24.551Z,67.77
2018-06-14T03:22:54.020Z,68.08
2018-06-14T03:25:22.699Z,68.44
2018-06-14T03:27:51.652Z,68.70
2018-06-14T03:30:20.702Z,68.61
2018-06-14T03:32:50.183Z,68.72
2018-06-14T03:35:19.516Z,69.18
2018-06-14T03:37:48.171Z,69.48
2018-06-14T03:40:16.946Z,70.25
2018-06-14T03:42:46.547Z,71.15
2018-06-14T03:45:21.379Z,71.78
2018-06-14T03:47:51.171Z,72.24
2018-06-14T03:50:19.794Z,71.93
2018-06-14T03:52:48.530Z,72.01
2018-06-14T03:55:17.223Z,71.50
2018-06-14T03:57:45.947Z,71.32
2018-06-14T04:00:14.685Z,70.95
2018-06-14T04:02:43.331Z,70.84
2018-06-14T04:05:11.980Z,71.47
2018-06-14T04:07:40.805Z,71.91
2018-06-14T04:10:09.590Z,71.59
2018-06-14T04:12:38.215Z,71.63
2018-06-14T04:15:06.920Z,71.59
2018-06-14T04:17:35.561Z,72.37
2018-06-14T04:20:04.227Z,72.00
2018-06-14T04:22:32.913Z,71.34
2018-06-14T04:25:01.670Z,70.66
2018-06-14T04:27:30.387Z,71.08
2018-06-14T04:29:59.071Z,71.98
2018-06-14T04:32:27.738Z,71.63
2018-06-14T04:34:56.380Z,71.63
2018-06-14T04:37:25.164Z,71.69
2018-06-14T04:39:53.835Z,71.63
2018-06-14T04:42:22.511Z,72.15
2018-06-14T04:44:51.164Z,72.91
2018-06-14T04:47:19.828Z,72.30
2018-06-14T04:49:48.493Z,72.27
2018-06-14T04:52:17.210Z,72.59
2018-06-14T04:54:47.898Z,73.22
2018-06-14T04:57:17.250Z,72.68
2018-06-14T04:59:45.927Z,72.23
2018-06-14T05:02:14.694Z,72.82
2018-06-14T05:04:43.315Z,72.95
2018-06-14T05:07:12.010Z,72.76
2018-06-14T05:09:40.724Z,73.03
2018-06-14T05:12:09.384Z,72.75
2018-06-14T05:14:38.105Z,72.70
2018-06-14T05:17:06.793Z,73.25
2018-06-14T05:19:35.445Z,73.03
2018-06-14T05:22:04.219Z,72.92
2018-06-14T05:24:32.944Z,72.65
2018-06-14T05:27:01.800Z,72.20
2018-06-14T05:29:30.451Z,72.25
2018-06-14T05:31:59.973Z,71.82
2018-06-14T05:34:28.603Z,72.17
2018-06-14T05:36:57.358Z,70.82
2018-06-14T05:39:25.997Z,71.05
2018-06-14T05:41:54.656Z,71.28
2018-06-14T05:44:23.386Z,70.55
2018-06-14T05:46:52.031Z,69.56
2018-06-14T05:49:20.666Z,69.96
2018-06-14T05:51:49.322Z,69.37
2018-06-14T05:54:18.008Z,69.47
2018-06-14T05:56:46.752Z,69.68
2018-06-14T05:59:15.450Z,69.78
2018-06-14T06:01:44.296Z,69.91
2018-06-14T06:04:12.913Z,69.39
2018-06-14T06:06:41.646Z,68.50
2018-06-14T06:09:11.674Z,68.28
2018-06-14T06:11:40.808Z,67.96
2018-06-14T06:14:09.695Z,67.36
2018-06-14T06:16:38.393Z,67.38
2018-06-14T06:19:08.210Z,66.12
2018-06-14T06:21:36.935Z,66.36
2018-06-14T06:24:05.604Z,65.34
2018-06-14T06:26:34.292Z,66.44
2018-06-14T06:29:02.916Z,65.82
2018-06-14T06:31:31.601Z,65.10
2018-06-14T06:34:00.264Z,64.75
2018-06-14T06:36:28.973Z,65.35
2018-06-14T06:38:57.727Z,64.63
2018-06-14T06:41:26.495Z,64.22
2018-06-14T06:43:55.214Z,63.73
2018-06-14T06:46:23.906Z,64.42
2018-06-14T06:48:52.564Z,63.50
2018-06-14T06:51:21.262Z,62.96
2018-06-14T06:53:49.906Z,63.54
2018-06-14T06:56:18.601Z,63.06
2018-06-14T06:58:47.275Z,62.84
2018-06-14T07:01:15.950Z,63.31
2018-06-14T07:03:44.632Z,63.17
2018-06-14T07:06:13.660Z,63.61
2018-06-14T07:08:42.285Z,63.39
2018-06-14T07:11:10.972Z,63.29
2018-06-14T07:13:39.634Z,63.82
2018-06-14T07:16:08.391Z,63.55
2018-06-14T07:18:37.086Z,63.35
2018-06-14T07:21:05.790Z,63.40
2018-06-14T07:23:34.423Z,62.74
2018-06-14T07:26:03.173Z,62.86
2018-06-14T07:28:31.812Z,60.65
2018-06-14T07:31:00.499Z,59.49
2018-06-14T07:33:29.199Z,58.22
2018-06-14T07:35:58.037Z,58.55
2018-06-14T07:38:26.756Z,57.11
2018-06-14T07:40:55.453Z,56.19
2018-06-14T07:43:24.094Z,55.86
2018-06-14T07:45:52.801Z,57.96
2018-06-14T07:48:21.489Z,57.27
2018-06-14T07:50:50.149Z,56.66
2018-06-14T07:53:18.860Z,57.40
2018-06-14T07:55:47.611Z,54.34
2018-06-14T07:58:16.644Z,53.75
2018-06-14T08:00:45.430Z,52.55
2018-06-14T08:03:14.164Z,52.14
2018-06-14T08:05:42.924Z,52.06
2018-06-14T08:08:11.539Z,52.09
2018-06-14T08:10:40.230Z,54.50
2018-06-14T08:13:09.272Z,54.18
2018-06-14T08:15:37.984Z,54.00
2018-06-14T08:18:06.728Z,54.69
2018-06-14T08:20:35.468Z,54.37
2018-06-14T08:23:04.074Z,55.72
2018-06-14T08:25:33.759Z,54.17
2018-06-14T08:28:02.396Z,53.88
2018-06-14T08:30:31.320Z,55.39
2018-06-14T08:33:00.022Z,54.43
2018-06-14T08:35:28.707Z,54.41
2018-06-14T08:37:57.447Z,52.82
2018-06-14T08:40:26.047Z,52.49
2018-06-14T08:42:54.687Z,52.22
2018-06-14T08:45:23.386Z,53.12
2018-06-14T08:47:52.058Z,52.93
2018-06-14T08:50:20.698Z,53.25
2018-06-14T08:52:49.466Z,55.38
2018-06-14T08:55:18.128Z,54.21
2018-06-14T08:57:46.827Z,53.14
2018-06-14T09:00:15.621Z,52.91
2018-06-14T09:02:44.268Z,52.98
2018-06-14T09:05:13.028Z,53.74
2018-06-14T09:07:41.685Z,53.12
2018-06-14T09:10:11.181Z,53.38
2018-06-14T09:12:39.995Z,53.40
2018-06-14T09:15:08.715Z,52.19
2018-06-14T09:17:37.419Z,51.39
2018-06-14T09:20:06.363Z,52.41
2018-06-14T09:22:35.014Z,51.77
2018-06-14T09:25:03.678Z,51.78
2018-06-14T09:27:32.843Z,50.75
2018-06-14T09:30:01.510Z,50.17
2018-06-14T09:32:30.178Z,48.67
2018-06-14T09:34:58.967Z,49.42
2018-06-14T09:37:27.706Z,50.61
2018-06-14T09:39:56.507Z,51.39
2018-06-14T09:42:25.284Z,51.40
2018-06-14T09:44:53.985Z,50.96
2018-06-14T09:47:22.681Z,47.62
2018-06-14T09:49:51.325Z,45.86
2018-06-14T09:52:20.060Z,45.53
2018-06-14T09:54:48.772Z,44.33
2018-06-14T09:57:17.419Z,44.98
2018-06-14T09:59:46.051Z,45.58
2018-06-14T10:02:14.787Z,46.97
2018-06-14T10:04:43.487Z,47.11
2018-06-14T10:07:12.244Z,48.42
2018-06-14T10:09:40.911Z,49.18
2018-06-14T10:12:09.603Z,49.40
2018-06-14T10:14:38.219Z,49.18
2018-06-14T10:17:06.855Z,48.33
2018-06-14T10:19:35.684Z,48.94
2018-06-14T10:22:04.459Z,48.42
2018-06-14T10:24:33.117Z,48.20
2018-06-14T10:27:02.195Z,47.67
2018-06-14T10:29:30.878Z,48.34
2018-06-14T10:31:59.564Z,47.91
2018-06-14T10:34:28.250Z,47.55
2018-06-14T10:36:57.376Z,49.52
2018-06-14T10:39:26.186Z,48.62
2018-06-14T10:41:54.920Z,46.91
2018-06-14T10:44:23.610Z,45.45
2018-06-14T10:46:52.248Z,44.26
2018-06-14T10:49:20.931Z,45.30
2018-06-14T10:51:49.651Z,44.93
2018-06-14T10:54:18.343Z,42.98
2018-06-14T10:56:47.036Z,42.72
2018-06-14T10:59:15.663Z,44.72
2018-06-14T11:01:44.363Z,46.57
2018-06-14T11:04:13.114Z,44.88
2018-06-14T11:06:41.823Z,43.19
2018-06-14T11:09:12.018Z,43.66
2018-06-14T11:11:40.996Z,45.62
2018-06-14T11:14:09.665Z,44.36
2018-06-14T11:16:38.340Z,43.83
2018-06-14T11:19:06.973Z,44.69
2018-06-14T11:21:35.914Z,45.95
2018-06-14T11:24:04.604Z,47.10
2018-06-14T11:26:33.264Z,46.37
2018-06-14T11:29:02.021Z,44.52
2018-06-14T11:31:31.344Z,46.45
2018-06-14T11:34:00.104Z,46.92
2018-06-14T11:36:28.759Z,45.32
2018-06-14T11:38:57.815Z,44.60
2018-06-14T11:41:26.484Z,44.96
2018-06-14T11:43:55.117Z,44.24
2018-06-14T11:46:24.843Z,44.91
2018-06-14T11:48:53.679Z,45.56
2018-06-14T11:51:22.401Z,46.51
2018-06-14T11:53:51.135Z,47.16
2018-06-14T11:56:19.836Z,45.52
2018-06-14T11:58:48.520Z,43.95
2018-06-14T12:01:17.278Z,42.71
2018-06-14T12:03:45.977Z,41.50
2018-06-14T12:06:14.667Z,40.55
2018-06-14T12:08:43.324Z,41.79
2018-06-14T12:11:12.040Z,42.89
2018-06-14T12:13:40.910Z,45.25
2018-06-14T12:16:09.577Z,44.27
2018-06-14T12:18:38.291Z,44.43
2018-06-14T12:21:06.994Z,44.62
2018-06-14T12:23:35.782Z,43.79
2018-06-14T12:26:05.755Z,43.92
2018-06-14T12:28:34.558Z,41.99
2018-06-14T12:31:03.244Z,41.58
2018-06-14T12:33:31.924Z,41.08
2018-06-14T12:36:00.638Z,41.15
2018-06-14T12:38:29.305Z,40.55
2018-06-14T12:40:57.990Z,40.48
2018-06-14T12:43:26.723Z,40.03
2018-06-14T12:45:55.414Z,39.15
2018-06-14T12:48:24.073Z,38.70
2018-06-14T12:50:52.763Z,40.22
2018-06-14T12:53:21.472Z,40.31
2018-06-14T12:55:50.123Z,39.96
2018-06-14T12:58:18.751Z,39.95
2018-06-14T13:00:47.424Z,39.14
2018-06-14T13:03:16.076Z,39.55
2018-06-14T13:05:44.807Z,39.31
2018-06-14T13:08:13.571Z,39.66
2018-06-14T13:10:42.307Z,39.97
2018-06-14T13:13:10.989Z,39.86
2018-06-14T13:15:39.675Z,39.31
2018-06-14T13:18:08.386Z,39.63
2018-06-14T13:20:37.050Z,40.94
2018-06-14T13:23:05.805Z,41.64
2018-06-14T13:25:34.613Z,40.37
2018-06-14T13:28:03.368Z,40.31
2018-06-14T13:30:32.081Z,39.82
2018-06-14T13:33:00.818Z,40.12
2018-06-14T13:35:29.614Z,40.79
2018-06-14T13:37:58.726Z,41.18
2018-06-14T13:40:27.473Z,41.51
2018-06-14T13:42:56.178Z,40.44
2018-06-14T13:45:24.878Z,40.02
2018-06-14T13:47:53.526Z,39.99
2018-06-14T13:50:22.293Z,39.20
2018-06-14T13:52:51.401Z,39.75
2018-06-14T13:55:20.065Z,40.31
2018-06-14T13:57:48.741Z,40.46
2018-06-14T14:00:17.550Z,40.75
2018-06-14T14:02:46.236Z,41.48
2018-06-14T14:05:14.927Z,41.76
2018-06-14T14:07:43.627Z,42.52
2018-06-14T14:10:12.300Z,42.39
2018-06-14T14:12:40.943Z,41.74
2018-06-14T14:15:09.624Z,41.57
2018-06-14T14:17:38.277Z,42.37
2018-06-14T14:20:06.914Z,41.06
2018-06-14T14:22:35.661Z,41.53
2018-06-14T14:25:04.342Z,42.31
2018-06-14T14:27:32.940Z,42.69
2018-06-14T14:30:01.607Z,42.08
2018-06-14T14:32:30.652Z,42.36
2018-06-14T14:34:59.324Z,42.39
2018-06-14T14:37:27.983Z,41.47
2018-06-14T14:39:56.657Z,41.09
2018-06-14T14:42:25.322Z,42.42
2018-06-14T14:44:54.013Z,42.42
2018-06-14T14:47:22.696Z,42.15
2018-06-14T14:49:51.357Z,41.97
2018-06-14T14:52:20.032Z,41.50
2018-06-14T14:54:48.708Z,41.92
2018-06-14T14:57:17.392Z,41.61
2018-06-14T14:59:46.044Z,41.15
2018-06-14T15:02:14.784Z,41.63
2018-06-14T15:04:43.431Z,41.70
2018-06-14T15:07:12.571Z,41.85
2018-06-14T15:09:41.288Z,41.69
2018-06-14T15:12:09.997Z,41.70
2018-06-14T15:14:38.666Z,41.41
2018-06-14T15:17:07.374Z,41.85
2018-06-14T15:19:36.001Z,41.99
2018-06-14T15:22:04.681Z,42.06
2018-06-14T15:24:33.361Z,42.49
2018-06-14T15:27:01.979Z,42.02
2018-06-14T15:29:30.681Z,42.65
2018-06-14T15:31:59.978Z,42.56
2018-06-14T15:34:28.640Z,42.44
2018-06-14T15:36:57.354Z,42.03
2018-06-14T15:39:26.002Z,42.07
2018-06-14T15:41:54.677Z,41.88
2018-06-14T15:44:23.359Z,42.59
2018-06-14T15:46:52.061Z,42.77
2018-06-14T15:49:20.756Z,42.30
2018-06-14T15:51:49.485Z,41.86
2018-06-14T15:54:18.249Z,41.68
2018-06-14T15:56:46.944Z,41.74
2018-06-14T15:59:16.566Z,41.49
2018-06-14T16:01:45.332Z,42.00
2018-06-14T16:04:14.104Z,42.74
2018-06-14T16:06:42.758Z,43.00
2018-06-14T16:09:12.039Z,42.60
2018-06-14T16:11:40.691Z,42.92
2018-06-14T16:14:09.401Z,42.98
2018-06-14T16:16:38.065Z,43.08
2018-06-14T16:19:06.767Z,42.79
2018-06-14T16:21:35.556Z,43.35
2018-06-14T16:24:04.226Z,42.52
2018-06-14T16:26:32.845Z,42.48
2018-06-14T16:29:01.529Z,42.91
2018-06-14T16:31:30.305Z,43.32
2018-06-14T16:33:59.151Z,43.67
2018-06-14T16:36:27.885Z,43.57
2018-06-14T16:38:56.724Z,43.80
2018-06-14T16:41:25.363Z,43.92
2018-06-14T16:43:54.059Z,43.85
2018-06-14T16:46:22.699Z,44.01
2018-06-14T16:48:51.314Z,43.53
2018-06-14T16:51:19.961Z,44.19
2018-06-14T16:53:48.605Z,43.95
2018-06-14T16:56:17.363Z,44.78
2018-06-14T16:58:46.020Z,43.94
2018-06-14T17:01:14.700Z,44.92
2018-06-14T17:03:43.313Z,44.58
2018-06-14T17:06:12.017Z,45.19
2018-06-14T17:08:40.647Z,44.95
2018-06-14T17:11:09.374Z,44.75
2018-06-14T17:13:38.094Z,44.97
2018-06-14T17:16:07.392Z,45.14
2018-06-14T17:18:36.197Z,45.75
2018-06-14T17:21:05.861Z,45.24
2018-06-14T17:23:34.567Z,45.20
2018-06-14T17:26:03.182Z,45.80
2018-06-14T17:28:31.891Z,45.72
2018-06-14T17:31:00.609Z,45.92
2018-06-14T17:33:30.002Z,46.62
2018-06-14T17:35:58.678Z,46.49
2018-06-14T17:38:28.104Z,46.68
2018-06-14T17:40:56.950Z,46.95
2018-06-14T17:43:25.740Z,46.70
2018-06-14T17:45:54.525Z,47.26
2018-06-14T17:48:23.219Z,47.13
2018-06-14T17:50:51.977Z,47.26
2018-06-14T17:53:20.653Z,47.63
2018-06-14T17:55:49.385Z,47.75
2018-06-14T17:58:18.097Z,47.76
2018-06-14T18:00:46.741Z,47.86
2018-06-14T18:03:15.407Z,48.13
2018-06-14T18:05:44.103Z,48.68
2018-06-14T18:08:12.815Z,48.62
2018-06-14T18:10:41.478Z,48.64
2018-06-14T18:13:10.245Z,48.62
2018-06-14T18:15:38.932Z,49.05
2018-06-14T18:18:07.654Z,49.13
2018-06-14T18:20:37.035Z,49.27
2018-06-14T18:23:05.760Z,49.68
2018-06-14T18:25:34.484Z,49.96
2018-06-14T18:28:03.260Z,49.60
2018-06-14T18:30:31.910Z,50.15
2018-06-14T18:33:00.550Z,50.14
2018-06-14T18:35:29.331Z,50.30
2018-06-14T18:37:58.100Z,50.27
2018-06-14T18:40:27.152Z,49.88
2018-06-14T18:42:55.924Z,50.26
2018-06-14T18:45:24.658Z,50.55
2018-06-14T18:47:53.384Z,50.45
2018-06-14T18:50:22.137Z,50.60
2018-06-14T18:52:50.959Z,50.75
2018-06-14T18:55:19.679Z,50.71
2018-06-14T18:57:48.362Z,50.80
2018-06-14T19:00:17.051Z,51.08
2018-06-14T19:02:45.851Z,51.44
2018-06-14T19:05:14.578Z,51.55
2018-06-14T19:07:43.317Z,51.94
2018-06-14T19:10:12.004Z,51.51
2018-06-14T19:12:40.679Z,51.74
2018-06-14T19:15:09.383Z,52.25
2018-06-14T19:17:38.322Z,52.51
2018-06-14T19:20:07.783Z,52.44
2018-06-14T19:22:36.852Z,52.56
2018-06-14T19:25:05.729Z,53.18
2018-06-14T19:27:34.486Z,53.58
2018-06-14T19:30:03.219Z,53.88
2018-06-14T19:32:31.880Z,53.92
2018-06-14T19:35:00.921Z,54.76
2018-06-14T19:37:29.960Z,55.22
2018-06-14T19:39:58.723Z,54.53
2018-06-14T19:42:27.491Z,54.67
2018-06-14T19:44:56.152Z,55.28
2018-06-14T19:47:24.964Z,57.68
2018-06-14T19:49:54.517Z,66.67
2018-06-14T19:52:23.231Z,69.08
2018-06-14T19:54:51.978Z,71.57
2018-06-14T19:57:20.672Z,72.11
2018-06-14T19:59:50.149Z,73.49
2018-06-14T20:02:18.815Z,75.63
2018-06-14T20:04:47.946Z,75.99
2018-06-14T20:07:16.629Z,77.77
2018-06-14T20:09:45.416Z,77.35
2018-06-14T20:12:14.075Z,77.70
2018-06-14T20:14:42.734Z,78.08
2018-06-14T20:17:11.441Z,78.14
2018-06-14T20:19:40.491Z,78.30
2018-06-14T20:22:09.203Z,77.58
2018-06-14T20:24:37.881Z,78.10
2018-06-14T20:27:08.228Z,77.79
2018-06-14T20:29:36.936Z,78.65
2018-06-14T20:32:05.619Z,77.27
2018-06-14T20:34:34.331Z,77.81
2018-06-14T20:37:03.045Z,76.29
2018-06-14T20:39:31.704Z,77.38
2018-06-14T20:42:00.482Z,76.92
2018-06-14T20:44:29.215Z,76.95
2018-06-14T20:46:57.898Z,78.85
2018-06-14T20:49:26.793Z,78.54
2018-06-14T20:51:55.530Z,77.31
2018-06-14T20:54:24.299Z,77.25
2018-06-14T20:56:53.106Z,76.58
2018-06-14T20:59:21.837Z,78.17
2018-06-14T21:01:50.513Z,77.45
2018-06-14T21:04:19.232Z,77.77
2018-06-14T21:06:47.931Z,77.30
2018-06-14T21:09:16.643Z,77.42
2018-06-14T21:11:45.412Z,77.35
2018-06-14T21:14:14.131Z,77.71
2018-06-14T21:16:42.856Z,77.48
2018-06-14T21:19:11.581Z,76.59
2018-06-14T21:21:40.424Z,77.00
2018-06-14T21:24:09.158Z,79.22
2018-06-14T21:26:37.910Z,77.87
2018-06-14T21:29:06.569Z,78.42
2018-06-14T21:31:35.309Z,78.02
2018-06-14T21:34:04.024Z,78.91
2018-06-14T21:36:32.720Z,78.05
2018-06-14T21:39:01.547Z,78.88
2018-06-14T21:41:31.233Z,78.16
2018-06-14T21:44:00.064Z,78.22
2018-06-14T21:46:28.817Z,78.34
2018-06-14T21:48:57.656Z,77.42
2018-06-14T21:51:26.440Z,78.58
2018-06-14T21:53:55.113Z,77.93
2018-06-14T21:56:23.824Z,78.03
2018-06-14T21:58:52.512Z,77.93
2018-06-14T22:01:21.172Z,78.44
2018-06-14T22:03:56.168Z,78.54
2018-06-14T22:06:25.173Z,77.18
2018-06-14T22:08:53.946Z,78.00
2018-06-14T22:11:22.571Z,77.77
2018-06-14T22:13:51.342Z,77.81
2018-06-14T22:16:20.085Z,78.09
2018-06-14T22:18:48.754Z,78.14
2018-06-14T22:21:18.093Z,78.36
2018-06-14T22:23:47.669Z,78.17
2018-06-14T22:26:16.474Z,78.38
2018-06-14T22:28:45.941Z,78.62
2018-06-14T22:31:14.702Z,77.62
2018-06-14T22:33:54.837Z,78.27
2018-06-14T22:36:23.597Z,78.34
2018-06-14T22:38:52.251Z,78.73
2018-06-14T22:41:20.984Z,78.00
2018-06-14T22:43:49.803Z,78.57
2018-06-14T22:46:18.565Z,78.29
2018-06-14T22:48:47.215Z,78.94
2018-06-14T22:51:19.193Z,79.00
2018-06-14T22:53:47.879Z,78.59
2018-06-14T22:56:16.637Z,78.17
2018-06-14T22:58:45.963Z,78.58
2018-06-14T23:01:31.196Z,78.42
2018-06-14T23:04:00.584Z,78.07
2018-06-14T23:06:29.385Z,78.33
2018-06-14T23:08:58.851Z,77.88
2018-06-14T23:11:27.518Z,78.19
2018-06-14T23:13:56.196Z,78.88
2018-06-14T23:16:24.884Z,79.07
2018-06-14T23:18:53.555Z,79.39
2018-06-14T23:21:22.247Z,79.21
2018-06-14T23:23:50.951Z,79.00
2018-06-14T23:26:19.655Z,79.07
2018-06-14T23:28:48.341Z,79.16
2018-06-14T23:31:16.963Z,78.39
2018-06-14T23:33:45.635Z,79.06
2018-06-14T23:36:14.300Z,79.51
2018-06-14T23:38:42.976Z,79.40
2018-06-14T23:41:11.636Z,79.02
2018-06-14T23:43:40.302Z,79.38
2018-06-14T23:46:08.967Z,80.20
2018-06-14T23:48:38.267Z,79.35
2018-06-14T23:51:07.722Z,79.38
2018-06-14T23:53:38.149Z,79.19
2018-06-14T23:56:06.834Z,79.45
2018-06-14T23:58:35.490Z,79.85
